createdAt,value
2022-08-21T00:02:15.445Z,10.73
2022-08-21T00:04:48.162Z,10.77
2022-08-21T00:07:27.343Z,11.27
2022-08-21T00:09:56.930Z,11.18
2022-08-21T00:12:26.321Z,11.30
2022-08-21T00:14:58.066Z,11.82
2022-08-21T00:17:27.760Z,12.30
2022-08-21T00:19:57.075Z,11.18
2022-08-21T00:22:26.590Z,10.75
2022-08-21T00:24:55.789Z,10.88
2022-08-21T00:27:25.241Z,12.02
2022-08-21T00:29:55.949Z,11.20
2022-08-21T00:32:27.516Z,10.35
2022-08-21T00:34:56.865Z,11.68
2022-08-21T00:37:26.212Z,13.13
2022-08-21T00:39:55.506Z,11.52
2022-08-21T00:42:24.792Z,11.80
2022-08-21T00:44:54.288Z,10.82
2022-08-21T00:47:24.067Z,11.00
2022-08-21T00:49:53.310Z,10.77
2022-08-21T00:52:25.652Z,10.98
2022-08-21T00:54:55.519Z,10.87
2022-08-21T00:57:31.001Z,10.98
2022-08-21T01:00:03.424Z,11.63
2022-08-21T01:02:34.717Z,11.30
2022-08-21T01:05:04.025Z,12.00
2022-08-21T01:07:33.430Z,11.53
2022-08-21T01:10:02.741Z,11.45
2022-08-21T01:12:32.232Z,11.93
2022-08-21T01:15:01.924Z,11.93
2022-08-21T01:17:31.438Z,11.50
2022-08-21T01:20:01.781Z,13.20
2022-08-21T01:22:31.409Z,10.95
2022-08-21T01:25:00.558Z,12.63
2022-08-21T01:27:30.207Z,12.88
2022-08-21T01:30:21.790Z,11.65
2022-08-21T01:32:56.955Z,13.23
2022-08-21T01:35:26.668Z,12.07
2022-08-21T01:37:56.289Z,12.30
2022-08-21T01:40:25.690Z,12.18
2022-08-21T01:42:55.636Z,12.85
2022-08-21T01:45:25.757Z,11.83
2022-08-21T01:47:55.078Z,13.23
2022-08-21T01:50:24.796Z,13.40
2022-08-21T01:52:54.355Z,12.38
2022-08-21T01:55:25.269Z,12.18
2022-08-21T01:58:00.850Z,11.97
2022-08-21T02:00:30.310Z,12.40
2022-08-21T02:02:59.843Z,12.98
2022-08-21T02:05:29.188Z,13.55
2022-08-21T02:07:59.167Z,13.57
2022-08-21T02:10:31.849Z,13.43
2022-08-21T02:13:02.851Z,13.18
2022-08-21T02:15:33.563Z,12.63
2022-08-21T02:18:05.017Z,13.23
2022-08-21T02:20:39.774Z,12.88
2022-08-21T02:23:10.040Z,13.97
2022-08-21T02:25:39.767Z,13.60
2022-08-21T02:28:12.477Z,13.52
2022-08-21T02:30:50.053Z,14.55
2022-08-21T02:33:19.995Z,13.75
2022-08-21T02:35:50.105Z,13.77
2022-08-21T02:38:29.266Z,13.52
2022-08-21T02:40:59.788Z,14.07
2022-08-21T02:43:30.740Z,14.07
2022-08-21T02:46:00.992Z,13.95
2022-08-21T02:48:32.063Z,13.83
2022-08-21T02:51:11.012Z,13.70
2022-08-21T02:53:40.897Z,13.45
2022-08-21T02:56:15.179Z,13.20
2022-08-21T02:58:54.099Z,13.27
2022-08-21T03:01:24.024Z,13.00
2022-08-21T03:04:10.375Z,12.93
2022-08-21T03:06:39.774Z,12.57
2022-08-21T03:09:09.825Z,14.02
2022-08-21T03:11:39.177Z,12.82
2022-08-21T03:14:08.646Z,13.40
2022-08-21T03:16:38.003Z,14.32
2022-08-21T03:19:07.371Z,14.65
2022-08-21T03:21:36.555Z,15.18
2022-08-21T03:24:06.898Z,15.00
2022-08-21T03:26:36.802Z,15.00
2022-08-21T03:29:09.826Z,15.80
2022-08-21T03:31:39.134Z,15.35
2022-08-21T03:34:08.413Z,15.48
2022-08-21T03:36:37.709Z,15.70
2022-08-21T03:39:07.635Z,16.90
2022-08-21T03:41:37.052Z,15.68
2022-08-21T03:44:06.499Z,15.70
2022-08-21T03:46:36.381Z,15.65
2022-08-21T03:49:06.331Z,16.20
2022-08-21T03:51:35.893Z,15.27
2022-08-21T03:54:05.516Z,15.13
2022-08-21T03:56:34.761Z,15.98
2022-08-21T03:59:04.947Z,15.73
2022-08-21T04:01:35.334Z,15.90
2022-08-21T04:04:05.796Z,16.03
2022-08-21T04:06:37.859Z,17.23
2022-08-21T04:09:07.495Z,15.93
2022-08-21T04:11:36.886Z,16.77
2022-08-21T04:14:06.738Z,15.63
2022-08-21T04:16:36.211Z,16.10
2022-08-21T04:19:05.524Z,16.38
2022-08-21T04:21:35.216Z,15.50
2022-08-21T04:24:04.576Z,15.60
2022-08-21T04:26:33.917Z,15.52
2022-08-21T04:29:03.811Z,16.47
2022-08-21T04:31:33.019Z,15.13
2022-08-21T04:34:02.542Z,15.65
2022-08-21T04:36:31.823Z,16.02
2022-08-21T04:39:03.562Z,16.73
2022-08-21T04:41:33.833Z,17.57
2022-08-21T04:44:03.267Z,17.30
2022-08-21T04:46:32.659Z,16.15
2022-08-21T04:49:01.812Z,17.42
2022-08-21T04:51:35.306Z,17.67
2022-08-21T04:54:30.804Z,17.00
2022-08-21T04:57:05.865Z,17.65
2022-08-21T04:59:38.599Z,17.40
2022-08-21T05:02:09.619Z,17.88
2022-08-21T05:04:42.580Z,18.02
2022-08-21T05:07:17.353Z,17.27
2022-08-21T05:10:18.173Z,18.17
2022-08-21T05:12:47.705Z,17.48
2022-08-21T05:15:19.377Z,16.92
2022-08-21T05:18:00.694Z,17.35
2022-08-21T05:20:36.629Z,17.80
2022-08-21T05:23:32.663Z,18.30
2022-08-21T05:26:02.090Z,17.63
2022-08-21T05:28:31.338Z,17.50
2022-08-21T05:31:01.216Z,17.48
2022-08-21T05:33:30.578Z,18.20
2022-08-21T05:36:00.445Z,17.73
2022-08-21T05:38:30.603Z,18.83
2022-08-21T05:40:59.908Z,19.65
2022-08-21T05:43:29.662Z,17.48
2022-08-21T05:46:00.237Z,17.83
2022-08-21T05:48:29.539Z,18.20
2022-08-21T05:50:59.150Z,17.77
2022-08-21T05:53:53.243Z,17.80
2022-08-21T05:56:22.954Z,18.05
2022-08-21T05:58:52.115Z,17.70
2022-08-21T06:01:21.441Z,17.75
2022-08-21T06:03:51.011Z,18.80
2022-08-21T06:06:20.551Z,17.60
2022-08-21T06:08:49.944Z,17.23
2022-08-21T06:11:20.815Z,17.83
2022-08-21T06:13:50.186Z,18.80
2022-08-21T06:16:19.818Z,17.73
2022-08-21T06:18:48.978Z,17.77
2022-08-21T06:21:19.669Z,17.60
2022-08-21T06:23:49.773Z,17.30
2022-08-21T06:26:20.383Z,16.35
2022-08-21T06:28:49.649Z,18.52
2022-08-21T06:31:24.494Z,19.92
2022-08-21T06:33:57.788Z,17.63
2022-08-21T06:36:29.903Z,17.67
2022-08-21T06:38:59.521Z,17.65
2022-08-21T06:41:30.517Z,18.08
2022-08-21T06:44:08.728Z,17.38
2022-08-21T06:46:38.035Z,17.85
2022-08-21T06:49:07.386Z,17.27
2022-08-21T06:51:45.151Z,18.40
2022-08-21T06:54:14.401Z,18.05
2022-08-21T06:56:43.763Z,18.95
2022-08-21T06:59:13.106Z,16.73
2022-08-21T07:01:42.735Z,18.07
2022-08-21T07:04:12.215Z,17.00
2022-08-21T07:06:44.496Z,18.48
2022-08-21T07:09:13.813Z,17.75
2022-08-21T07:11:47.507Z,21.67
2022-08-21T07:14:20.331Z,17.50
2022-08-21T07:16:51.193Z,19.60
2022-08-21T07:19:20.724Z,19.63
2022-08-21T07:21:50.229Z,18.00
2022-08-21T07:24:19.853Z,16.88
2022-08-21T07:26:49.031Z,17.73
2022-08-21T07:29:18.310Z,19.75
2022-08-21T07:31:48.156Z,18.95
2022-08-21T07:34:17.544Z,17.02
2022-08-21T07:36:47.125Z,17.02
2022-08-21T07:39:16.460Z,18.03
2022-08-21T07:41:45.982Z,17.00
2022-08-21T07:44:15.392Z,19.50
2022-08-21T07:46:45.824Z,17.80
2022-08-21T07:49:15.533Z,17.15
2022-08-21T07:51:44.958Z,19.43
2022-08-21T07:54:17.087Z,17.95
2022-08-21T07:56:47.997Z,16.80
2022-08-21T07:59:17.181Z,21.50
2022-08-21T08:01:46.455Z,17.42
2022-08-21T08:04:17.799Z,19.23
2022-08-21T08:06:47.990Z,17.80
2022-08-21T08:09:17.528Z,19.23
2022-08-21T08:11:48.282Z,17.08
2022-08-21T08:14:19.395Z,17.73
2022-08-21T08:16:55.944Z,20.97
2022-08-21T08:19:25.164Z,19.02
2022-08-21T08:21:55.276Z,20.77
2022-08-21T08:24:24.747Z,18.95
2022-08-21T08:26:54.207Z,16.48
2022-08-21T08:29:24.762Z,21.53
2022-08-21T08:31:54.232Z,19.17
2022-08-21T08:34:25.497Z,18.65
2022-08-21T08:36:55.526Z,18.00
2022-08-21T08:39:29.395Z,18.10
2022-08-21T08:42:33.824Z,18.30
2022-08-21T08:45:17.160Z,19.52
2022-08-21T08:47:54.284Z,18.50
2022-08-21T08:50:29.304Z,18.15
2022-08-21T08:53:05.968Z,17.80
2022-08-21T08:55:42.950Z,22.93
2022-08-21T08:58:30.769Z,21.80
2022-08-21T09:01:00.486Z,17.33
2022-08-21T09:03:30.843Z,19.42
2022-08-21T09:06:08.755Z,17.10
2022-08-21T09:08:57.725Z,17.93
2022-08-21T09:11:45.112Z,18.77
2022-08-21T09:14:25.842Z,16.90
2022-08-21T09:17:14.603Z,18.25
2022-08-21T09:19:48.543Z,17.88
2022-08-21T09:22:33.748Z,17.37
2022-08-21T09:25:23.263Z,18.98
2022-08-21T09:27:53.657Z,18.98
2022-08-21T09:30:29.994Z,18.85
2022-08-21T09:32:59.813Z,19.35
2022-08-21T09:35:29.503Z,18.30
2022-08-21T09:38:04.366Z,20.38
2022-08-21T09:40:48.235Z,17.10
2022-08-21T09:43:19.599Z,20.35
2022-08-21T09:45:52.830Z,20.80
2022-08-21T09:48:32.921Z,15.90
2022-08-21T09:51:15.308Z,16.92
2022-08-21T09:53:51.485Z,16.65
2022-08-21T09:56:48.556Z,19.38
2022-08-21T09:59:37.319Z,16.77
2022-08-21T10:02:28.461Z,18.53
2022-08-21T10:05:04.225Z,15.70
2022-08-21T10:07:35.470Z,16.60
2022-08-21T10:10:11.907Z,16.40
2022-08-21T10:12:52.920Z,16.05
2022-08-21T10:15:43.090Z,14.97
2022-08-21T10:18:16.181Z,17.05
2022-08-21T10:21:00.838Z,16.13
2022-08-21T10:23:39.700Z,15.18
2022-08-21T10:26:13.791Z,15.43
2022-08-21T10:29:06.217Z,15.70
2022-08-21T10:31:40.639Z,18.05
2022-08-21T10:34:20.362Z,15.95
2022-08-21T10:37:10.567Z,13.57
2022-08-21T10:39:52.690Z,14.18
2022-08-21T10:42:36.328Z,15.53
2022-08-21T10:45:22.516Z,15.38
2022-08-21T10:47:58.298Z,15.02
2022-08-21T10:50:33.732Z,16.63
2022-08-21T10:53:21.073Z,19.80
2022-08-21T10:56:08.444Z,15.77
2022-08-21T10:58:48.828Z,15.63
2022-08-21T11:01:46.369Z,16.40
2022-08-21T11:04:22.164Z,16.25
2022-08-21T11:06:56.750Z,15.82
2022-08-21T11:09:27.752Z,18.07
2022-08-21T11:12:11.123Z,13.77
2022-08-21T11:15:05.746Z,16.25
2022-08-21T11:17:46.921Z,14.30
2022-08-21T11:20:29.905Z,16.17
2022-08-21T11:23:15.469Z,15.93
2022-08-21T11:25:48.959Z,15.98
2022-08-21T11:28:50.185Z,15.73
2022-08-21T11:31:30.653Z,13.55
2022-08-21T11:34:09.948Z,13.65
2022-08-21T11:36:57.963Z,12.23
2022-08-21T11:39:54.865Z,12.98
2022-08-21T11:42:24.074Z,13.30
2022-08-21T11:44:56.997Z,14.73
2022-08-21T11:47:26.207Z,13.68
2022-08-21T11:50:29.648Z,11.87
2022-08-21T11:53:08.796Z,12.80
2022-08-21T11:55:44.283Z,14.40
2022-08-21T11:58:17.274Z,13.35
2022-08-21T12:00:56.182Z,12.70
2022-08-21T12:03:32.610Z,12.87
2022-08-21T12:06:13.905Z,13.98
2022-08-21T12:09:02.288Z,10.45
2022-08-21T12:11:31.883Z,12.18
2022-08-21T12:14:21.369Z,10.80
2022-08-21T12:16:52.577Z,11.83
2022-08-21T12:19:27.966Z,14.00
2022-08-21T12:22:13.770Z,12.88
2022-08-21T12:24:53.354Z,12.55
2022-08-21T12:27:56.233Z,11.95
2022-08-21T12:30:38.273Z,12.43
2022-08-21T12:33:21.266Z,11.38
2022-08-21T12:35:53.488Z,12.25
2022-08-21T12:38:30.201Z,14.95
2022-08-21T12:41:00.975Z,10.77
2022-08-21T12:43:38.082Z,12.63
2022-08-21T12:46:07.800Z,10.88
2022-08-21T12:48:37.146Z,12.38
2022-08-21T12:51:18.664Z,11.95
2022-08-21T12:54:00.880Z,13.52
2022-08-21T12:56:34.431Z,11.33
2022-08-21T12:59:07.445Z,12.27
2022-08-21T13:01:57.677Z,12.07
2022-08-21T13:04:35.418Z,12.10
2022-08-21T13:07:14.530Z,11.35
2022-08-21T13:09:50.518Z,11.40
2022-08-21T13:12:21.523Z,11.63
2022-08-21T13:14:52.915Z,11.88
2022-08-21T13:17:26.054Z,13.30
2022-08-21T13:20:06.245Z,11.43
2022-08-21T13:22:41.786Z,11.47
2022-08-21T13:25:21.266Z,12.85
2022-08-21T13:28:15.063Z,10.88
2022-08-21T13:30:56.038Z,11.85
2022-08-21T13:33:37.606Z,10.98
2022-08-21T13:36:08.779Z,11.90
2022-08-21T13:38:39.832Z,10.82
2022-08-21T13:42:02.799Z,10.73
2022-08-21T13:44:45.195Z,10.70
2022-08-21T13:47:17.676Z,11.13
2022-08-21T13:49:50.019Z,11.30
2022-08-21T13:52:28.656Z,10.82
2022-08-21T13:55:12.582Z,12.05
2022-08-21T13:57:42.131Z,9.75
2022-08-21T14:00:21.176Z,10.93
2022-08-21T14:02:54.028Z,10.73
2022-08-21T14:05:29.893Z,10.07
2022-08-21T14:08:22.084Z,12.13
2022-08-21T14:11:00.594Z,10.93
2022-08-21T14:13:59.251Z,11.00
2022-08-21T14:16:31.871Z,10.73
2022-08-21T14:19:04.775Z,9.57
2022-08-21T14:22:20.768Z,11.95
2022-08-21T14:24:55.022Z,12.07
2022-08-21T14:27:26.708Z,11.23
2022-08-21T14:30:02.315Z,11.10
2022-08-21T14:32:44.922Z,11.38
2022-08-21T14:35:23.801Z,10.20
2022-08-21T14:38:20.633Z,10.48
2022-08-21T14:40:55.996Z,10.50
2022-08-21T14:43:32.856Z,10.40
2022-08-21T14:46:04.371Z,11.82
2022-08-21T14:48:34.162Z,11.65
2022-08-21T14:51:04.069Z,10.30
2022-08-21T14:53:33.806Z,10.95
2022-08-21T14:56:09.696Z,12.67
2022-08-21T14:58:42.122Z,12.07
2022-08-21T15:01:14.279Z,12.40
2022-08-21T15:03:44.441Z,10.25
2022-08-21T15:06:15.322Z,11.60
2022-08-21T15:09:14.018Z,9.40
2022-08-21T15:11:43.653Z,11.02
2022-08-21T15:14:21.600Z,9.63
2022-08-21T15:16:52.153Z,10.80
2022-08-21T15:19:22.117Z,10.57
2022-08-21T15:21:52.234Z,11.50
2022-08-21T15:24:24.546Z,10.80
2022-08-21T15:26:55.584Z,10.63
2022-08-21T15:29:28.950Z,10.50
2022-08-21T15:32:25.624Z,11.27
2022-08-21T15:34:56.432Z,12.03
2022-08-21T15:37:27.577Z,12.63
2022-08-21T15:39:57.228Z,10.63
2022-08-21T15:42:31.596Z,11.00
2022-08-21T15:45:01.438Z,10.60
2022-08-21T15:47:39.110Z,11.43
2022-08-21T15:50:11.881Z,10.48
2022-08-21T15:52:41.914Z,9.32
2022-08-21T15:55:12.686Z,10.95
2022-08-21T15:57:58.105Z,10.00
2022-08-21T16:00:29.006Z,11.03
2022-08-21T16:03:01.747Z,11.13
2022-08-21T16:05:31.804Z,9.93
2022-08-21T16:08:01.983Z,11.55
2022-08-21T16:10:33.529Z,12.30
2022-08-21T16:13:07.747Z,11.80
2022-08-21T16:15:37.686Z,12.30
2022-08-21T16:18:08.029Z,11.40
2022-08-21T16:20:37.605Z,10.70
2022-08-21T16:23:08.348Z,12.57
2022-08-21T16:25:40.456Z,9.97
2022-08-21T16:28:13.688Z,9.70
2022-08-21T16:30:45.361Z,10.80
2022-08-21T16:33:39.752Z,11.65
2022-08-21T16:36:11.699Z,10.80
2022-08-21T16:38:45.509Z,12.37
2022-08-21T16:41:18.804Z,11.60
2022-08-21T16:43:49.023Z,11.40
2022-08-21T16:46:19.167Z,11.18
2022-08-21T16:48:48.950Z,11.27
2022-08-21T16:51:19.545Z,11.80
2022-08-21T16:53:49.052Z,10.77
2022-08-21T16:56:18.754Z,10.73
2022-08-21T16:58:51.318Z,11.75
2022-08-21T17:01:24.124Z,11.45
2022-08-21T17:03:55.035Z,11.53
2022-08-21T17:06:28.917Z,12.00
2022-08-21T17:08:59.469Z,11.13
2022-08-21T17:11:41.591Z,12.30
2022-08-21T17:14:20.995Z,11.98
2022-08-21T17:16:53.391Z,11.53
2022-08-21T17:19:22.900Z,10.95
2022-08-21T17:21:52.233Z,11.38
2022-08-21T17:24:24.220Z,11.38
2022-08-21T17:26:55.339Z,12.20
2022-08-21T17:29:30.345Z,12.27
2022-08-21T17:31:59.830Z,12.77
2022-08-21T17:34:31.184Z,11.75
2022-08-21T17:37:01.622Z,11.35
2022-08-21T17:39:30.793Z,11.18
2022-08-21T17:42:04.536Z,11.87
2022-08-21T17:44:34.049Z,11.25
2022-08-21T17:47:03.738Z,11.38
2022-08-21T17:49:33.132Z,11.32
2022-08-21T17:52:02.762Z,12.13
2022-08-21T17:54:32.283Z,11.83
2022-08-21T17:57:02.774Z,12.02
2022-08-21T17:59:32.398Z,12.20
2022-08-21T18:02:03.776Z,11.20
2022-08-21T18:04:35.238Z,11.43
2022-08-21T18:07:04.548Z,10.37
2022-08-21T18:09:33.755Z,12.25
2022-08-21T18:12:03.439Z,10.82
2022-08-21T18:14:36.397Z,11.93
2022-08-21T18:17:13.999Z,11.23
2022-08-21T18:19:49.281Z,11.77
2022-08-21T18:22:18.801Z,10.65
2022-08-21T18:24:48.275Z,11.00
2022-08-21T18:27:17.685Z,11.48
2022-08-21T18:29:47.876Z,11.90
2022-08-21T18:32:30.514Z,11.80
2022-08-21T18:35:02.624Z,11.60
2022-08-21T18:37:33.493Z,11.63
2022-08-21T18:40:03.067Z,12.05
2022-08-21T18:42:34.448Z,12.35
2022-08-21T18:45:04.696Z,11.80
2022-08-21T18:47:38.365Z,12.55
2022-08-21T18:50:10.745Z,11.68
2022-08-21T18:52:52.851Z,11.70
2022-08-21T18:55:24.449Z,11.65
2022-08-21T18:57:57.554Z,12.20
2022-08-21T19:00:44.284Z,12.13
2022-08-21T19:03:20.045Z,11.77
2022-08-21T19:05:55.116Z,12.57
2022-08-21T19:08:28.554Z,11.20
2022-08-21T19:10:59.552Z,12.53
2022-08-21T19:13:30.065Z,12.88
2022-08-21T19:16:01.634Z,11.63
2022-08-21T19:18:32.285Z,11.43
2022-08-21T19:21:01.516Z,13.52
2022-08-21T19:23:31.511Z,12.17
2022-08-21T19:26:07.110Z,11.80
2022-08-21T19:28:45.853Z,13.43
2022-08-21T19:31:23.744Z,12.77
2022-08-21T19:34:01.757Z,12.85
2022-08-21T19:36:32.488Z,12.77
2022-08-21T19:39:08.216Z,12.50
2022-08-21T19:41:41.103Z,12.23
2022-08-21T19:44:15.603Z,12.15
2022-08-21T19:46:46.282Z,12.23
2022-08-21T19:49:27.187Z,12.70
2022-08-21T19:51:56.709Z,13.48
2022-08-21T19:54:32.509Z,12.75
2022-08-21T19:57:05.980Z,12.05
2022-08-21T19:59:35.671Z,12.50
2022-08-21T20:02:05.438Z,12.83
2022-08-21T20:04:35.198Z,11.90
2022-08-21T20:07:08.323Z,12.88
2022-08-21T20:09:38.678Z,12.02
2022-08-21T20:12:10.989Z,11.15
2022-08-21T20:14:48.272Z,12.37
2022-08-21T20:17:19.266Z,13.30
2022-08-21T20:19:54.366Z,11.63
2022-08-21T20:22:25.027Z,12.35
2022-08-21T20:24:55.777Z,12.00
2022-08-21T20:27:29.262Z,13.13
2022-08-21T20:29:59.048Z,12.80
2022-08-21T20:32:29.047Z,13.55
2022-08-21T20:35:01.726Z,12.45
2022-08-21T20:37:36.593Z,12.63
2022-08-21T20:40:13.176Z,12.53
2022-08-21T20:42:51.242Z,12.25
2022-08-21T20:45:32.733Z,12.73
2022-08-21T20:48:06.904Z,11.65
2022-08-21T20:50:39.746Z,12.20
2022-08-21T20:53:18.607Z,11.30
2022-08-21T20:55:51.169Z,12.57
2022-08-21T20:58:25.752Z,12.48
2022-08-21T21:01:06.154Z,11.60
2022-08-21T21:03:45.224Z,12.23
2022-08-21T21:06:23.819Z,12.40
2022-08-21T21:08:59.228Z,12.32
2022-08-21T21:11:36.181Z,11.52
2022-08-21T21:14:17.832Z,12.63
2022-08-21T21:16:51.102Z,12.23
2022-08-21T21:19:41.048Z,13.07
2022-08-21T21:22:17.699Z,12.40
2022-08-21T21:24:56.709Z,14.73
2022-08-21T21:27:35.283Z,12.80
2022-08-21T21:30:24.432Z,12.02
2022-08-21T21:32:55.419Z,12.33
2022-08-21T21:35:36.404Z,11.30
2022-08-21T21:38:51.611Z,11.88
2022-08-21T21:41:49.061Z,12.27
2022-08-21T21:44:44.948Z,12.30
2022-08-21T21:47:20.133Z,11.87
2022-08-21T21:50:22.215Z,12.27
2022-08-21T21:53:24.815Z,12.75
2022-08-21T21:55:54.176Z,12.05
2022-08-21T21:58:26.430Z,13.27
2022-08-21T22:01:09.571Z,13.27
2022-08-21T22:04:21.171Z,13.27
2022-08-21T22:07:14.191Z,12.45
2022-08-21T22:09:54.211Z,12.32
2022-08-21T22:12:50.051Z,12.68
2022-08-21T22:18:16.383Z,12.38
2022-08-21T22:21:12.704Z,12.70
2022-08-21T22:24:06.375Z,12.60
2022-08-21T22:26:44.352Z,12.95
2022-08-21T22:29:19.898Z,13.23
2022-08-21T22:32:10.350Z,12.50
2022-08-21T22:34:39.731Z,12.48
2022-08-21T22:37:12.485Z,12.25
2022-08-21T22:39:44.539Z,12.50
2022-08-21T22:42:24.948Z,13.60
2022-08-21T22:45:09.401Z,12.38
2022-08-21T22:47:44.783Z,12.98
2022-08-21T22:50:27.485Z,12.40
2022-08-21T22:53:09.866Z,12.68
2022-08-21T22:55:43.785Z,13.30
2022-08-21T22:58:16.205Z,12.23
2022-08-21T23:01:14.410Z,12.70
2022-08-21T23:03:51.652Z,11.18
2022-08-21T23:07:02.621Z,16.10
2022-08-21T23:09:40.784Z,12.70
2022-08-21T23:12:33.045Z,12.85
2022-08-21T23:15:12.945Z,14.10
2022-08-21T23:17:50.215Z,12.50
2022-08-21T23:20:32.053Z,12.68
2022-08-21T23:23:08.450Z,13.57
2022-08-21T23:26:06.026Z,13.07
2022-08-21T23:29:24.935Z,13.70
2022-08-21T23:32:35.556Z,12.95
2022-08-21T23:35:18.679Z,11.88
2022-08-21T23:37:51.619Z,12.27
2022-08-21T23:43:58.246Z,12.63
2022-08-21T23:47:22.520Z,12.93
2022-08-21T23:49:59.113Z,12.25
2022-08-21T23:53:00.447Z,12.10
2022-08-21T23:55:58.345Z,11.13
2022-08-21T23:58:52.104Z,11.15
